createdAt,value
2023-01-18T00:00:48.005Z,90.56
2023-01-18T00:03:14.928Z,90.88
2023-01-18T00:05:42.485Z,91.23
2023-01-18T00:08:14.432Z,90.77
2023-01-18T00:10:41.596Z,90.78
2023-01-18T00:13:08.753Z,90.68
2023-01-18T00:15:36.307Z,91.00
2023-01-18T00:18:03.507Z,90.88
2023-01-18T00:20:31.535Z,90.90
2023-01-18T00:23:01.945Z,91.02
2023-01-18T00:25:30.286Z,91.52
2023-01-18T00:27:57.359Z,91.36
2023-01-18T00:30:27.661Z,91.31
2023-01-18T00:32:58.634Z,91.17
2023-01-18T00:35:26.282Z,91.25
2023-01-18T00:37:54.145Z,91.35
2023-01-18T00:40:22.530Z,91.00
2023-01-18T00:43:07.945Z,90.93
2023-01-18T00:45:35.021Z,90.80
2023-01-18T00:48:02.843Z,90.91
2023-01-18T00:50:30.462Z,90.66
2023-01-18T00:52:59.065Z,90.47
2023-01-18T00:55:26.804Z,90.65
2023-01-18T00:57:53.970Z,90.71
2023-01-18T01:00:27.013Z,90.75
2023-01-18T01:02:54.537Z,91.06
2023-01-18T01:05:42.266Z,91.34
2023-01-18T01:08:17.066Z,91.32
2023-01-18T01:10:49.213Z,91.37
2023-01-18T01:13:40.568Z,91.48
2023-01-18T01:16:30.400Z,91.36
2023-01-18T01:19:15.685Z,91.52
2023-01-18T01:22:01.170Z,89.11
2023-01-18T01:24:46.666Z,87.71
2023-01-18T01:27:17.556Z,87.51
2023-01-18T01:29:44.568Z,87.37
2023-01-18T01:32:11.596Z,87.33
2023-01-18T01:34:38.441Z,86.48
2023-01-18T01:37:05.660Z,84.90
2023-01-18T01:39:32.531Z,85.06
2023-01-18T01:41:59.501Z,84.05
2023-01-18T01:44:29.919Z,83.96
2023-01-18T01:47:14.730Z,84.27
2023-01-18T01:49:55.045Z,84.30
2023-01-18T01:52:35.914Z,84.64
2023-01-18T01:55:13.507Z,84.46
2023-01-18T01:57:51.111Z,84.62
2023-01-18T02:00:20.446Z,84.80
2023-01-18T02:02:53.647Z,84.23
2023-01-18T02:05:20.994Z,84.81
2023-01-18T02:07:48.880Z,84.60
2023-01-18T02:10:16.338Z,84.64
2023-01-18T02:12:47.099Z,84.98
2023-01-18T02:15:15.005Z,84.71
2023-01-18T02:18:29.979Z,85.22
2023-01-18T02:21:06.098Z,84.78
2023-01-18T02:24:21.572Z,83.02
2023-01-18T02:26:59.552Z,82.86
2023-01-18T02:29:32.498Z,83.45
2023-01-18T02:32:05.336Z,83.36
2023-01-18T02:34:47.536Z,82.53
2023-01-18T02:37:39.969Z,83.00
2023-01-18T02:40:26.136Z,83.20
2023-01-18T02:43:12.058Z,83.36
2023-01-18T02:46:01.789Z,83.58
2023-01-18T02:48:41.930Z,83.35
2023-01-18T02:51:09.876Z,83.93
2023-01-18T02:53:45.254Z,84.19
2023-01-18T02:56:33.931Z,83.46
2023-01-18T02:59:05.197Z,84.22
2023-01-18T03:01:41.546Z,83.97
2023-01-18T03:04:22.656Z,84.24
2023-01-18T03:06:59.149Z,83.74
2023-01-18T03:09:27.512Z,84.21
2023-01-18T03:12:16.114Z,84.51
2023-01-18T03:15:10.117Z,84.48
2023-01-18T03:17:51.490Z,84.00
2023-01-18T03:20:25.907Z,84.12
2023-01-18T03:23:21.827Z,84.68
2023-01-18T03:25:51.113Z,84.85
2023-01-18T03:28:52.758Z,85.01
2023-01-18T03:32:20.111Z,85.38
2023-01-18T03:34:59.188Z,85.22
2023-01-18T03:37:38.875Z,86.09
2023-01-18T03:40:23.796Z,86.31
2023-01-18T03:43:03.747Z,86.33
2023-01-18T03:45:37.543Z,86.30
2023-01-18T03:48:07.262Z,86.00
2023-01-18T03:50:49.698Z,85.67
2023-01-18T03:53:33.747Z,85.36
2023-01-18T03:56:18.417Z,85.55
2023-01-18T03:58:47.566Z,85.40
2023-01-18T04:01:14.778Z,85.17
2023-01-18T04:03:41.704Z,85.63
2023-01-18T04:06:08.964Z,85.85
2023-01-18T04:08:35.823Z,86.25
2023-01-18T04:11:02.790Z,86.49
2023-01-18T04:13:29.760Z,86.41
2023-01-18T04:15:56.721Z,86.76
2023-01-18T04:18:23.602Z,86.93
2023-01-18T04:20:50.507Z,86.51
2023-01-18T04:23:17.607Z,86.67
2023-01-18T04:25:50.051Z,87.07
2023-01-18T04:28:25.359Z,87.13
2023-01-18T04:30:54.476Z,87.33
2023-01-18T04:33:23.401Z,87.33
2023-01-18T04:35:51.855Z,87.47
2023-01-18T04:38:20.406Z,87.33
2023-01-18T04:40:47.426Z,87.55
2023-01-18T04:43:14.312Z,87.23
2023-01-18T04:45:41.214Z,87.95
2023-01-18T04:48:08.159Z,87.34
2023-01-18T04:50:35.118Z,87.46
2023-01-18T04:53:02.570Z,87.49
2023-01-18T04:55:29.500Z,88.01
2023-01-18T04:57:57.564Z,87.90
2023-01-18T05:00:24.745Z,87.57
2023-01-18T05:02:51.709Z,87.91
2023-01-18T05:05:18.692Z,88.15
2023-01-18T05:07:45.730Z,87.53
2023-01-18T05:10:13.185Z,87.51
2023-01-18T05:12:41.500Z,87.41
2023-01-18T05:15:08.980Z,87.03
2023-01-18T05:17:35.964Z,86.84
2023-01-18T05:20:06.436Z,86.80
2023-01-18T05:22:34.068Z,87.73
2023-01-18T05:25:01.371Z,88.46
2023-01-18T05:30:14.398Z,88.32
2023-01-18T05:32:43.708Z,89.21
2023-01-18T05:35:12.439Z,89.62
2023-01-18T05:37:40.252Z,90.08
2023-01-18T05:40:12.403Z,89.99
2023-01-18T05:42:40.804Z,90.37
2023-01-18T05:45:08.195Z,90.43
2023-01-18T05:47:35.212Z,90.07
2023-01-18T05:50:02.464Z,90.14
2023-01-18T05:52:29.819Z,90.26
2023-01-18T05:54:56.797Z,89.97
2023-01-18T05:57:24.013Z,90.35
2023-01-18T05:59:50.847Z,89.73
2023-01-18T06:02:18.776Z,89.82
2023-01-18T06:04:45.710Z,90.21
2023-01-18T06:07:13.017Z,91.16
2023-01-18T06:09:42.666Z,90.94
2023-01-18T06:12:10.448Z,90.62
2023-01-18T06:14:37.415Z,90.59
2023-01-18T06:17:04.725Z,90.12
2023-01-18T06:19:31.522Z,90.28
2023-01-18T06:21:58.480Z,90.31
2023-01-18T06:24:25.560Z,90.26
2023-01-18T06:26:52.420Z,90.33
2023-01-18T06:29:19.317Z,90.42
2023-01-18T06:31:46.369Z,90.48
2023-01-18T06:34:13.402Z,90.68
2023-01-18T06:36:40.566Z,91.38
2023-01-18T06:39:07.678Z,91.43
2023-01-18T06:41:34.767Z,91.76
2023-01-18T06:44:01.859Z,91.77
2023-01-18T06:46:29.319Z,91.86
2023-01-18T06:48:56.268Z,92.02
2023-01-18T06:51:24.281Z,92.31
2023-01-18T06:53:51.356Z,92.05
2023-01-18T06:56:18.390Z,92.14
2023-01-18T06:58:45.406Z,92.01
2023-01-18T07:01:12.672Z,91.74
2023-01-18T07:03:39.686Z,91.65
2023-01-18T07:06:07.597Z,90.32
2023-01-18T07:08:35.672Z,89.34
2023-01-18T07:11:08.600Z,89.56
2023-01-18T07:13:35.886Z,89.05
2023-01-18T07:16:02.920Z,87.15
2023-01-18T07:18:30.689Z,86.78
2023-01-18T07:21:07.370Z,86.32
2023-01-18T07:23:36.580Z,85.44
2023-01-18T07:26:12.717Z,85.16
2023-01-18T07:28:39.907Z,84.59
2023-01-18T07:31:08.132Z,84.34
2023-01-18T07:33:36.178Z,83.86
2023-01-18T07:36:06.392Z,83.63
2023-01-18T07:38:34.137Z,83.11
2023-01-18T07:41:08.369Z,82.56
2023-01-18T07:43:39.907Z,81.74
2023-01-18T07:46:09.570Z,81.41
2023-01-18T07:48:38.871Z,81.14
2023-01-18T07:51:08.664Z,79.27
2023-01-18T07:53:37.207Z,79.69
2023-01-18T07:56:07.611Z,79.94
2023-01-18T07:58:37.945Z,78.98
2023-01-18T08:01:14.083Z,77.63
2023-01-18T08:03:43.715Z,77.54
2023-01-18T08:06:13.696Z,77.30
2023-01-18T08:08:40.909Z,77.02
2023-01-18T08:11:08.231Z,75.65
2023-01-18T08:13:35.573Z,76.21
2023-01-18T08:16:05.665Z,76.64
2023-01-18T08:18:32.912Z,76.05
2023-01-18T08:21:00.028Z,75.69
2023-01-18T08:23:27.061Z,75.44
2023-01-18T08:25:55.534Z,74.74
2023-01-18T08:28:22.651Z,74.74
2023-01-18T08:30:49.960Z,75.00
2023-01-18T08:33:16.951Z,73.96
2023-01-18T08:35:48.268Z,73.25
2023-01-18T08:38:16.822Z,73.37
2023-01-18T08:40:43.925Z,73.30
2023-01-18T08:43:11.911Z,73.48
2023-01-18T08:45:39.205Z,73.38
2023-01-18T08:48:09.709Z,73.35
2023-01-18T08:50:39.280Z,73.35
2023-01-18T08:53:06.836Z,73.42
2023-01-18T08:55:36.701Z,73.41
2023-01-18T08:58:04.098Z,72.99
2023-01-18T09:00:31.221Z,72.51
2023-01-18T09:02:59.992Z,72.04
2023-01-18T09:05:27.197Z,71.53
2023-01-18T09:07:55.459Z,71.58
2023-01-18T09:10:23.082Z,70.96
2023-01-18T09:12:52.751Z,70.90
2023-01-18T09:15:20.756Z,70.94
2023-01-18T09:17:47.590Z,71.18
2023-01-18T09:20:16.535Z,69.75
2023-01-18T09:22:47.769Z,69.50
2023-01-18T09:25:15.680Z,69.03
2023-01-18T09:27:42.742Z,69.67
2023-01-18T09:30:10.290Z,69.42
2023-01-18T09:32:37.298Z,68.72
2023-01-18T09:35:06.228Z,69.33
2023-01-18T09:37:33.339Z,69.46
2023-01-18T09:40:00.516Z,68.06
2023-01-18T09:42:36.769Z,68.20
2023-01-18T09:45:04.608Z,68.75
2023-01-18T09:47:43.204Z,68.33
2023-01-18T09:50:13.744Z,68.58
2023-01-18T09:52:53.931Z,68.48
2023-01-18T09:55:28.766Z,68.17
2023-01-18T09:58:20.647Z,67.93
2023-01-18T10:00:49.558Z,67.71
2023-01-18T10:03:28.510Z,68.08
2023-01-18T10:06:11.399Z,68.04
2023-01-18T10:09:04.979Z,66.58
2023-01-18T10:11:55.082Z,67.05
2023-01-18T10:14:45.339Z,66.85
2023-01-18T10:17:17.921Z,67.01
2023-01-18T10:19:44.924Z,67.60
2023-01-18T10:22:29.478Z,67.82
2023-01-18T10:25:18.900Z,68.01
2023-01-18T10:27:55.354Z,67.99
2023-01-18T10:30:45.165Z,67.50
2023-01-18T10:33:28.042Z,67.69
2023-01-18T10:36:00.928Z,68.31
2023-01-18T10:38:30.418Z,66.94
2023-01-18T10:41:03.492Z,65.67
2023-01-18T10:43:31.977Z,66.15
2023-01-18T10:45:59.311Z,65.86
2023-01-18T10:48:28.256Z,66.18
2023-01-18T10:51:04.007Z,65.33
2023-01-18T10:53:34.167Z,65.18
2023-01-18T10:56:08.135Z,64.65
2023-01-18T10:58:47.006Z,65.27
2023-01-18T11:01:36.497Z,65.79
2023-01-18T11:04:30.001Z,65.32
2023-01-18T11:07:00.724Z,65.96
2023-01-18T11:09:39.474Z,65.52
2023-01-18T11:12:55.009Z,64.58
2023-01-18T11:15:26.186Z,64.76
2023-01-18T11:18:00.415Z,65.60
2023-01-18T11:20:39.604Z,65.87
2023-01-18T11:23:09.498Z,65.35
2023-01-18T11:25:42.805Z,65.25
2023-01-18T11:28:35.241Z,64.06
2023-01-18T11:31:18.684Z,65.10
2023-01-18T11:33:57.489Z,63.29
2023-01-18T11:36:45.345Z,62.97
2023-01-18T11:39:29.500Z,62.20
2023-01-18T11:42:11.697Z,61.97
2023-01-18T11:45:27.523Z,60.62
2023-01-18T11:48:11.641Z,59.51
2023-01-18T11:50:49.421Z,58.46
2023-01-18T11:53:34.885Z,57.74
2023-01-18T11:56:07.933Z,57.52
2023-01-18T11:58:36.415Z,58.18
2023-01-18T12:01:34.108Z,58.24
2023-01-18T12:04:14.234Z,58.41
2023-01-18T12:07:18.270Z,57.43
2023-01-18T12:09:55.487Z,56.24
2023-01-18T12:13:00.571Z,57.13
2023-01-18T12:16:08.244Z,56.51
2023-01-18T12:18:50.751Z,55.80
2023-01-18T12:21:32.133Z,56.32
2023-01-18T12:24:10.853Z,56.43
2023-01-18T12:26:50.062Z,56.39
2023-01-18T12:29:55.540Z,56.60
2023-01-18T12:32:22.815Z,55.82
2023-01-18T12:35:24.012Z,55.52
2023-01-18T12:37:51.810Z,55.24
2023-01-18T12:40:37.077Z,55.56
2023-01-18T12:43:10.084Z,56.31
2023-01-18T12:45:40.479Z,56.92
2023-01-18T12:48:26.101Z,56.55
2023-01-18T12:50:55.133Z,57.23
2023-01-18T12:53:31.968Z,57.02
2023-01-18T12:56:04.236Z,57.43
2023-01-18T12:58:31.758Z,57.41
2023-01-18T13:01:04.419Z,57.85
2023-01-18T13:03:53.621Z,57.59
2023-01-18T13:06:21.394Z,57.77
2023-01-18T13:09:15.764Z,59.43
2023-01-18T13:11:44.448Z,59.91
2023-01-18T13:14:33.691Z,59.71
2023-01-18T13:17:14.349Z,60.32
2023-01-18T13:19:58.768Z,59.84
2023-01-18T13:22:45.140Z,60.40
2023-01-18T13:25:33.020Z,60.86
2023-01-18T13:28:14.056Z,61.51
2023-01-18T13:31:03.399Z,62.48
2023-01-18T13:33:40.712Z,62.72
2023-01-18T13:36:12.445Z,63.51
2023-01-18T13:38:52.508Z,63.73
2023-01-18T13:41:25.011Z,64.27
2023-01-18T13:43:51.945Z,64.60
2023-01-18T13:46:25.357Z,64.79
2023-01-18T13:48:57.671Z,65.35
2023-01-18T13:51:33.460Z,65.21
2023-01-18T13:54:00.539Z,65.82
2023-01-18T13:56:29.524Z,66.18
2023-01-18T13:59:21.256Z,66.19
2023-01-18T14:01:51.491Z,67.07
2023-01-18T14:04:21.105Z,67.12
2023-01-18T14:06:49.737Z,67.50
2023-01-18T14:09:19.850Z,67.20
2023-01-18T14:11:54.374Z,67.46
2023-01-18T14:14:21.222Z,67.37
2023-01-18T14:16:56.343Z,67.83
2023-01-18T14:19:24.429Z,68.21
2023-01-18T14:22:29.656Z,68.17
2023-01-18T14:25:32.896Z,68.41
2023-01-18T14:28:07.738Z,67.93
2023-01-18T14:30:37.200Z,68.32
2023-01-18T14:33:33.890Z,69.36
2023-01-18T14:36:02.057Z,69.71
2023-01-18T14:38:30.711Z,69.87
2023-01-18T14:41:06.021Z,70.15
2023-01-18T14:43:36.865Z,70.57
2023-01-18T14:46:03.792Z,70.61
2023-01-18T14:48:34.791Z,70.28
2023-01-18T14:51:05.119Z,70.72
2023-01-18T14:53:36.966Z,70.91
2023-01-18T14:56:25.962Z,71.04
2023-01-18T14:58:57.357Z,71.49
2023-01-18T15:01:26.761Z,72.17
2023-01-18T15:03:56.196Z,72.26
2023-01-18T15:07:03.995Z,71.89
2023-01-18T15:09:33.706Z,72.02
2023-01-18T15:12:04.662Z,72.19
2023-01-18T15:14:38.471Z,72.68
2023-01-18T15:17:11.696Z,72.81
2023-01-18T15:19:44.201Z,73.17
2023-01-18T15:22:17.006Z,73.38
2023-01-18T15:24:46.453Z,73.60
2023-01-18T15:27:18.885Z,73.68
2023-01-18T15:29:53.638Z,74.31
2023-01-18T15:32:33.295Z,74.90
2023-01-18T15:35:01.648Z,74.67
2023-01-18T15:37:34.766Z,75.15
2023-01-18T15:40:03.298Z,75.33
2023-01-18T15:42:46.807Z,75.42
2023-01-18T15:45:17.741Z,75.79
2023-01-18T15:47:50.700Z,75.66
2023-01-18T15:50:23.660Z,76.12
2023-01-18T15:53:02.198Z,76.27
2023-01-18T15:55:41.399Z,76.80
2023-01-18T15:58:18.211Z,77.11
2023-01-18T16:00:54.093Z,77.29
2023-01-18T16:03:26.373Z,76.95
2023-01-18T16:06:15.255Z,76.79
2023-01-18T16:09:12.731Z,76.75
2023-01-18T16:11:57.724Z,76.69
2023-01-18T16:14:27.944Z,76.61
2023-01-18T16:16:57.167Z,76.79
2023-01-18T16:19:42.282Z,77.13
2023-01-18T16:22:29.840Z,77.08
2023-01-18T16:25:01.529Z,76.99
2023-01-18T16:27:31.628Z,76.97
2023-01-18T16:30:18.146Z,77.06
2023-01-18T16:32:45.281Z,77.10
2023-01-18T16:35:14.312Z,76.63
2023-01-18T16:37:44.494Z,76.97
2023-01-18T16:40:23.188Z,77.33
2023-01-18T16:43:05.511Z,77.51
2023-01-18T16:45:37.960Z,77.28
2023-01-18T16:48:05.684Z,77.57
2023-01-18T16:50:33.083Z,77.39
2023-01-18T16:53:00.049Z,77.47
2023-01-18T16:55:27.214Z,77.76
2023-01-18T16:57:54.305Z,77.97
2023-01-18T17:00:28.345Z,77.80
2023-01-18T17:02:55.706Z,77.83
2023-01-18T17:05:22.880Z,78.01
2023-01-18T17:07:52.285Z,77.64
2023-01-18T17:10:31.415Z,77.88
2023-01-18T17:13:00.214Z,78.47
2023-01-18T17:15:30.005Z,78.55
2023-01-18T17:17:57.145Z,78.58
2023-01-18T17:20:26.345Z,78.51
2023-01-18T17:22:54.371Z,78.35
2023-01-18T17:25:22.705Z,78.20
2023-01-18T17:27:50.277Z,78.59
2023-01-18T17:30:21.549Z,78.42
2023-01-18T17:32:49.127Z,77.91
2023-01-18T17:35:22.991Z,78.25
2023-01-18T17:37:57.387Z,77.65
2023-01-18T17:40:39.589Z,77.75
2023-01-18T17:43:32.081Z,77.73
2023-01-18T17:46:03.393Z,77.71
2023-01-18T17:48:30.555Z,77.65
2023-01-18T17:50:57.476Z,78.03
2023-01-18T17:53:24.487Z,77.92
2023-01-18T17:55:51.443Z,77.73
2023-01-18T17:58:18.381Z,78.33
2023-01-18T18:00:45.428Z,78.03
2023-01-18T18:03:13.540Z,78.64
2023-01-18T18:05:40.500Z,78.21
2023-01-18T18:08:08.307Z,78.42
2023-01-18T18:10:35.244Z,78.49
2023-01-18T18:13:02.539Z,78.61
2023-01-18T18:15:30.517Z,78.71
2023-01-18T18:17:57.524Z,78.87
2023-01-18T18:20:24.882Z,79.09
2023-01-18T18:22:51.845Z,78.77
2023-01-18T18:25:18.905Z,79.26
2023-01-18T18:27:47.190Z,79.11
2023-01-18T18:30:15.612Z,79.14
2023-01-18T18:32:42.698Z,79.29
2023-01-18T18:35:23.538Z,79.67
2023-01-18T18:37:52.300Z,79.64
2023-01-18T18:40:19.372Z,79.56
2023-01-18T18:42:56.388Z,79.45
2023-01-18T18:45:30.104Z,79.35
2023-01-18T18:47:57.056Z,79.62
2023-01-18T18:50:24.049Z,79.72
2023-01-18T18:52:51.143Z,80.01
2023-01-18T18:55:18.544Z,80.50
2023-01-18T18:57:45.648Z,80.19
2023-01-18T19:00:13.712Z,79.79
2023-01-18T19:02:40.880Z,80.32
2023-01-18T19:05:10.692Z,79.99
2023-01-18T19:07:38.247Z,80.30
2023-01-18T19:10:06.824Z,80.63
2023-01-18T19:12:33.930Z,81.49
2023-01-18T19:15:01.000Z,81.73
2023-01-18T19:17:31.057Z,82.21
2023-01-18T19:19:59.416Z,81.89
2023-01-18T19:22:26.678Z,82.02
2023-01-18T19:24:53.681Z,81.99
2023-01-18T19:27:21.904Z,82.00
2023-01-18T19:29:48.787Z,82.52
2023-01-18T19:32:16.144Z,83.35
2023-01-18T19:34:43.242Z,83.67
2023-01-18T19:37:10.190Z,83.88
2023-01-18T19:39:37.107Z,84.11
2023-01-18T19:42:04.543Z,84.20
2023-01-18T19:44:31.685Z,84.16
2023-01-18T19:46:58.771Z,84.56
2023-01-18T19:49:26.128Z,84.62
2023-01-18T19:51:54.756Z,84.51
2023-01-18T19:54:22.327Z,84.96
2023-01-18T19:56:49.676Z,84.59
2023-01-18T19:59:16.756Z,85.06
2023-01-18T20:01:44.704Z,85.12
2023-01-18T20:04:13.586Z,85.28
2023-01-18T20:06:43.484Z,85.61
2023-01-18T20:09:19.565Z,85.70
2023-01-18T20:11:48.174Z,85.93
2023-01-18T20:14:18.704Z,86.28
2023-01-18T20:16:48.819Z,86.21
2023-01-18T20:19:17.588Z,86.12
2023-01-18T20:21:44.762Z,85.26
2023-01-18T20:24:11.822Z,85.63
2023-01-18T20:26:42.675Z,85.64
2023-01-18T20:29:10.401Z,86.19
2023-01-18T20:31:38.550Z,85.62
2023-01-18T20:34:06.908Z,86.19
2023-01-18T20:36:37.684Z,85.94
2023-01-18T20:39:05.889Z,86.00
2023-01-18T20:41:32.950Z,86.36
2023-01-18T20:43:59.944Z,85.87
2023-01-18T20:46:27.225Z,85.75
2023-01-18T20:48:54.052Z,85.65
2023-01-18T20:51:24.376Z,86.36
2023-01-18T20:54:25.877Z,86.25
2023-01-18T20:57:02.284Z,86.72
2023-01-18T20:59:31.116Z,86.90
2023-01-18T21:01:58.298Z,87.10
2023-01-18T21:04:33.422Z,87.14
2023-01-18T21:07:00.278Z,87.53
2023-01-18T21:09:27.542Z,87.95
2023-01-18T21:11:54.495Z,87.87
2023-01-18T21:14:21.376Z,88.06
2023-01-18T21:16:48.364Z,88.00
2023-01-18T21:19:15.264Z,88.31
2023-01-18T21:21:42.378Z,88.28
2023-01-18T21:24:09.250Z,88.46
2023-01-18T21:26:37.977Z,88.15
2023-01-18T21:29:05.846Z,87.95
2023-01-18T21:31:32.889Z,87.78
2023-01-18T21:33:59.760Z,88.10
2023-01-18T21:36:26.672Z,87.99
2023-01-18T21:38:53.740Z,87.75
2023-01-18T21:41:39.651Z,88.35
2023-01-18T21:44:25.135Z,88.45
2023-01-18T21:46:52.805Z,88.38
2023-01-18T21:52:58.479Z,88.17
2023-01-18T21:55:25.333Z,88.42
2023-01-18T21:58:10.926Z,89.08
2023-01-18T22:00:39.572Z,89.12
2023-01-18T22:03:06.819Z,89.78
2023-01-18T22:05:34.491Z,89.82
2023-01-18T22:08:03.720Z,89.70
2023-01-18T22:10:30.620Z,89.56
2023-01-18T22:12:58.040Z,89.48
2023-01-18T22:15:24.975Z,90.27
2023-01-18T22:17:51.853Z,90.29
2023-01-18T22:20:18.817Z,90.42
2023-01-18T22:22:46.603Z,90.70
2023-01-18T22:25:13.859Z,90.50
2023-01-18T22:27:40.684Z,90.32
2023-01-18T22:30:08.769Z,90.59
2023-01-18T22:32:35.621Z,90.81
2023-01-18T22:35:02.531Z,91.13
2023-01-18T22:37:29.750Z,91.33
2023-01-18T22:39:57.511Z,91.71
2023-01-18T22:42:25.672Z,91.79
2023-01-18T22:44:52.622Z,91.67
2023-01-18T22:47:19.544Z,92.22
2023-01-18T22:49:46.440Z,92.16
2023-01-18T22:52:13.464Z,91.99
2023-01-18T22:54:40.344Z,91.95
2023-01-18T22:57:07.220Z,91.52
2023-01-18T22:59:33.993Z,91.10
2023-01-18T23:02:00.907Z,91.61
2023-01-18T23:04:29.502Z,91.38
2023-01-18T23:07:00.928Z,91.75
2023-01-18T23:09:27.857Z,91.43
2023-01-18T23:11:55.061Z,90.84
2023-01-18T23:14:40.471Z,91.85
2023-01-18T23:17:27.796Z,91.56
2023-01-18T23:19:55.150Z,91.85
2023-01-18T23:22:22.078Z,92.17
2023-01-18T23:24:49.740Z,92.27
2023-01-18T23:27:16.796Z,91.77
2023-01-18T23:29:43.832Z,91.02
2023-01-18T23:32:10.773Z,91.47
2023-01-18T23:34:37.644Z,90.91
2023-01-18T23:37:04.483Z,91.24
2023-01-18T23:39:49.858Z,91.48
2023-01-18T23:42:35.685Z,90.69
2023-01-18T23:45:21.089Z,90.31
2023-01-18T23:48:06.323Z,90.57
2023-01-18T23:50:51.925Z,89.71
2023-01-18T23:53:37.168Z,88.93
2023-01-18T23:56:04.050Z,88.97
2023-01-18T23:58:30.957Z,88.55
